Time;durP1;ratioP1;P1;durP2;ratioP2;P2;SDS_P1;SDS_P2;PMS_P1;PMS_P2;Temp;Humidity;BMP_temperature;BMP_pressure;BME280_temperature;BME280_humidity;BME280_pressure;Samples;Min_cycle;Max_cycle;Signal;HPM_P1;HPM_P2
2022/09/30 00:01:09;;;;;;;5.67;1.77;;;18.30;99.90;;;;;;5032930;28;20184;-70
2022/09/30 00:03:36;;;;;;;8.47;1.70;;;18.30;99.90;;;;;;5031191;28;20625;-70
2022/09/30 00:06:06;;;;;;;7.73;2.20;;;18.40;99.90;;;;;;5033429;28;20256;-70
2022/09/30 00:08:34;;;;;;;7.23;1.83;;;18.70;99.90;;;;;;5036289;28;20185;-70
2022/09/30 00:11:06;;;;;;;8.50;2.23;;;19.10;99.90;;;;;;5036328;28;20615;-71
2022/09/30 00:13:36;;;;;;;12.00;2.23;;;19.00;99.90;;;;;;5034713;28;20183;-70
2022/09/30 00:16:05;;;;;;;10.60;1.87;;;19.10;99.90;;;;;;5036229;28;20691;-70
2022/09/30 00:18:33;;;;;;;3.87;1.57;;;18.90;99.90;;;;;;5036019;28;20227;-71
2022/09/30 00:21:01;;;;;;;8.33;1.37;;;18.40;99.90;;;;;;5035804;28;20231;-70
2022/09/30 00:23:28;;;;;;;10.93;2.30;;;17.90;99.90;;;;;;5036207;28;20235;-70
2022/09/30 00:26:01;;;;;;;12.07;2.43;;;17.70;99.90;;;;;;5035967;28;20512;-70
2022/09/30 00:28:29;;;;;;;7.93;1.80;;;17.60;99.90;;;;;;5035718;28;20181;-71
2022/09/30 00:31:02;;;;;;;12.20;2.80;;;17.40;99.90;;;;;;5035773;28;20643;-70
2022/09/30 00:33:29;;;;;;;13.70;2.40;;;17.30;99.90;;;;;;5035820;28;20181;-70
2022/09/30 00:35:57;;;;;;;14.30;3.17;;;17.30;99.90;;;;;;5035515;28;20188;-71
2022/09/30 00:38:24;;;;;;;13.00;2.13;;;17.40;99.90;;;;;;5035501;28;20540;-71
2022/09/30 00:40:52;;;;;;;17.40;2.80;;;17.60;99.90;;;;;;5035371;28;20173;-71
2022/09/30 00:43:52;;;;;;;16.17;3.13;;;17.90;99.90;;;;;;5035433;28;20263;-71
2022/09/30 00:46:38;;;;;;;15.67;3.10;;;18.20;99.90;;;;;;5032026;28;20264;-71
2022/09/30 00:49:34;;;;;;;13.00;2.87;;;18.40;99.90;;;;;;5035371;28;20657;-70
2022/09/30 00:52:02;;;;;;;11.67;2.97;;;18.40;99.90;;;;;;5032561;28;20186;-70
2022/09/30 00:54:31;;;;;;;11.73;2.50;;;18.80;99.90;;;;;;5035292;28;20184;-71
2022/09/30 00:57:03;;;;;;;14.03;2.57;;;18.80;99.90;;;;;;5035501;28;20174;-71
2022/09/30 00:59:42;;;;;;;10.20;2.17;;;18.90;99.90;;;;;;5035412;28;20181;-70
2022/09/30 01:02:12;;;;;;;9.63;2.10;;;18.90;99.90;;;;;;5035295;28;20173;-71
2022/09/30 01:04:41;;;;;;;9.53;2.00;;;18.80;99.90;;;;;;5035534;28;20665;-71
2022/09/30 01:07:09;;;;;;;18.70;3.20;;;18.80;99.90;;;;;;5034064;28;20177;-70
2022/09/30 01:09:39;;;;;;;11.23;2.37;;;18.80;99.90;;;;;;5035094;28;20203;-70
2022/09/30 01:12:15;;;;;;;12.23;3.20;;;18.80;99.90;;;;;;5035107;28;20639;-70
2022/09/30 01:14:46;;;;;;;13.07;2.43;;;18.90;99.90;;;;;;5037590;28;20174;-70
2022/09/30 01:17:21;;;;;;;7.10;1.97;;;19.20;99.90;;;;;;5036508;28;20256;-71
2022/09/30 01:19:51;;;;;;;10.60;2.23;;;19.50;99.90;;;;;;5038242;28;20244;-70
2022/09/30 01:22:37;;;;;;;9.57;2.00;;;19.50;99.90;;;;;;5037726;28;20198;-70
2022/09/30 01:25:37;;;;;;;9.80;2.50;;;19.60;99.90;;;;;;5038187;28;20418;-70
2022/09/30 01:28:28;;;;;;;12.43;2.10;;;19.70;99.90;;;;;;5037034;28;20289;-71
2022/09/30 01:31:26;;;;;;;16.33;2.87;;;19.70;99.90;;;;;;5038180;28;20181;-71
2022/09/30 01:34:36;;;;;;;14.23;2.70;;;20.20;99.90;;;;;;5038145;28;20701;-70
2022/09/30 01:37:12;;;;;;;14.87;2.73;;;20.30;99.90;;;;;;5036889;28;20183;-72
2022/09/30 01:40:21;;;;;;;12.00;2.73;;;20.20;99.90;;;;;;5036736;28;20185;-70
2022/09/30 01:43:23;;;;;;;11.77;2.77;;;20.30;99.90;;;;;;5038690;28;20178;-69
2022/09/30 01:46:01;;;;;;;10.07;2.33;;;20.10;99.90;;;;;;4987816;28;20190;-72
2022/09/30 01:48:59;;;;;;;8.83;2.00;;;20.30;99.90;;;;;;5038420;28;20268;-69
2022/09/30 01:51:32;;;;;;;14.87;2.27;;;20.60;99.90;;;;;;5037916;28;20588;-70
2022/09/30 01:54:23;;;;;;;9.27;2.53;;;20.40;99.90;;;;;;5038123;28;20185;-70
2022/09/30 01:57:20;;;;;;;11.33;2.10;;;20.00;99.90;;;;;;5038637;28;20173;-70
2022/09/30 02:00:00;;;;;;;10.73;2.03;;;19.60;99.90;;;;;;5030051;28;20188;-70
2022/09/30 02:02:31;;;;;;;12.47;2.37;;;19.00;99.90;;;;;;5037982;28;20179;-68
2022/09/30 02:05:03;;;;;;;7.30;1.97;;;18.60;99.90;;;;;;5038036;28;20262;-70
2022/09/30 02:07:43;;;;;;;11.20;2.53;;;18.50;99.90;;;;;;5038881;28;20579;-69
2022/09/30 02:10:18;;;;;;;13.57;2.47;;;18.90;99.90;;;;;;5039326;28;20265;-72
2022/09/30 02:13:02;;;;;;;8.83;2.10;;;19.50;99.90;;;;;;5039125;28;20173;-70
2022/09/30 02:15:36;;;;;;;12.60;2.30;;;20.30;99.90;;;;;;5037409;28;20663;-70
2022/09/30 02:18:27;;;;;;;12.17;2.60;;;20.80;99.90;;;;;;5038608;28;20170;-70
2022/09/30 02:21:00;;;;;;;7.53;2.37;;;21.40;99.90;;;;;;5035838;28;20246;-71
2022/09/30 02:23:39;;;;;;;8.53;2.30;;;21.40;99.90;;;;;;5037472;28;20212;-70
2022/09/30 02:26:16;;;;;;;9.17;2.30;;;21.70;99.90;;;;;;5035878;28;20184;-73
2022/09/30 02:29:03;;;;;;;10.80;2.27;;;22.30;99.90;;;;;;5036683;28;20237;-71
2022/09/30 02:31:34;;;;;;;8.20;1.33;;;22.40;99.90;;;;;;5036728;28;20252;-69
2022/09/30 02:34:08;;;;;;;9.43;2.07;;;22.40;99.90;;;;;;5037160;28;20173;-70
2022/09/30 02:36:42;;;;;;;9.77;1.83;;;22.10;99.90;;;;;;5037288;28;20174;-72
2022/09/30 02:39:47;;;;;;;7.43;1.60;;;21.80;99.90;;;;;;5036707;28;20292;-71
2022/09/30 02:42:25;;;;;;;9.20;2.10;;;22.30;99.90;;;;;;5007094;28;20200;-70
2022/09/30 02:45:02;;;;;;;5.87;1.57;;;22.40;99.90;;;;;;5038096;28;20222;-71
2022/09/30 02:47:53;;;;;;;9.87;2.07;;;22.30;99.90;;;;;;5037002;28;20498;-71
2022/09/30 02:50:45;;;;;;;9.43;2.00;;;22.00;99.90;;;;;;5036977;28;20566;-72
2022/09/30 02:53:21;;;;;;;15.10;2.00;;;21.80;99.90;;;;;;5034429;28;20673;-71
2022/09/30 02:55:54;;;;;;;9.00;2.10;;;21.60;99.90;;;;;;5037508;28;20168;-70
2022/09/30 02:58:28;;;;;;;15.93;2.53;;;21.30;99.90;;;;;;5045445;28;20200;-72
2022/09/30 03:00:56;;;;;;;11.10;2.07;;;21.00;99.90;;;;;;5058687;28;20184;-72
2022/09/30 03:03:36;;;;;;;11.23;2.13;;;20.90;99.90;;;;;;5057367;28;20235;-70
2022/09/30 03:06:05;;;;;;;11.67;2.10;;;20.70;99.90;;;;;;5036478;28;20590;-70
2022/09/30 03:08:32;;;;;;;6.70;2.03;;;20.80;99.90;;;;;;5035752;28;20174;-71
2022/09/30 03:11:01;;;;;;;11.27;2.10;;;20.50;99.90;;;;;;5036793;28;20665;-68
2022/09/30 03:13:47;;;;;;;10.83;2.00;;;20.40;99.90;;;;;;5034970;28;20182;-70
2022/09/30 03:16:50;;;;;;;12.57;3.20;;;20.60;99.90;;;;;;5036524;28;20185;-72
2022/09/30 03:19:24;;;;;;;10.90;2.03;;;20.70;99.90;;;;;;5035569;28;20221;-72
2022/09/30 03:22:14;;;;;;;13.20;2.50;;;20.90;99.90;;;;;;5036411;28;20208;-70
2022/09/30 03:24:56;;;;;;;6.67;1.90;;;20.80;99.90;;;;;;5036041;28;20216;-70
2022/09/30 03:27:42;;;;;;;10.47;1.97;;;20.70;99.90;;;;;;5036335;28;20192;-69
2022/09/30 03:30:18;;;;;;;9.40;2.10;;;20.70;99.90;;;;;;5035672;28;20542;-70
2022/09/30 03:32:55;;;;;;;11.90;2.37;;;20.90;99.90;;;;;;5035401;28;20330;-70
2022/09/30 03:35:37;;;;;;;8.43;2.43;;;20.90;99.90;;;;;;5035994;28;20184;-70
2022/09/30 03:38:27;;;;;;;11.17;2.17;;;20.90;99.90;;;;;;5035771;28;20177;-72
2022/09/30 03:41:07;;;;;;;9.23;2.00;;;20.80;99.90;;;;;;5036393;28;20651;-71
2022/09/30 03:44:08;;;;;;;5.87;1.50;;;20.80;99.90;;;;;;5038867;28;20213;-71
2022/09/30 03:46:59;;;;;;;6.77;1.80;;;20.80;99.90;;;;;;5039126;28;20204;-69
2022/09/30 03:49:49;;;;;;;8.00;1.97;;;20.90;99.90;;;;;;5039120;28;20200;-69
2022/09/30 03:52:17;;;;;;;13.37;2.40;;;20.60;99.90;;;;;;5037360;28;20724;-72
2022/09/30 03:55:00;;;;;;;8.27;2.20;;;20.30;99.90;;;;;;5038389;28;20639;-69
2022/09/30 03:57:28;;;;;;;7.63;1.67;;;19.70;99.90;;;;;;5036859;28;20692;-69
2022/09/30 04:00:00;;;;;;;9.17;1.50;;;18.90;99.90;;;;;;5037783;28;20213;-70
2022/09/30 04:02:28;;;;;;;8.90;2.57;;;18.40;99.90;;;;;;5038027;28;20278;-70
2022/09/30 04:04:55;;;;;;;11.33;2.00;;;18.30;99.90;;;;;;5036718;28;20227;-70
2022/09/30 04:07:24;;;;;;;9.97;2.17;;;18.80;99.90;;;;;;5038858;28;20177;-72
2022/09/30 04:09:52;;;;;;;8.83;2.20;;;18.90;99.90;;;;;;5034975;28;20193;-71
2022/09/30 04:12:19;;;;;;;11.50;2.27;;;19.10;99.90;;;;;;5036504;28;20717;-69
2022/09/30 04:14:47;;;;;;;7.77;2.20;;;19.00;99.90;;;;;;5036886;28;20276;-70
2022/09/30 04:17:23;;;;;;;5.77;1.77;;;19.00;99.90;;;;;;5031032;28;20300;-69
2022/09/30 04:19:50;;;;;;;9.20;1.77;;;19.50;99.90;;;;;;5027934;28;20237;-69
2022/09/30 04:22:17;;;;;;;5.80;1.87;;;20.00;99.90;;;;;;5033951;28;20250;-69
2022/09/30 04:24:46;;;;;;;5.17;1.87;;;20.50;99.90;;;;;;5030974;28;20221;-68
2022/09/30 04:27:13;;;;;;;5.33;1.67;;;21.00;99.90;;;;;;5036780;28;20200;-69
2022/09/30 04:29:41;;;;;;;9.37;1.63;;;21.00;99.90;;;;;;5024822;28;20179;-69
2022/09/30 04:32:08;;;;;;;8.40;1.67;;;20.10;99.90;;;;;;5017121;28;20185;-68
2022/09/30 04:34:36;;;;;;;7.23;1.87;;;19.40;99.90;;;;;;5029756;28;20643;-68
2022/09/30 04:37:06;;;;;;;6.57;1.40;;;19.20;99.90;;;;;;5037024;28;20206;-69
2022/09/30 04:39:33;;;;;;;10.87;2.00;;;19.10;99.90;;;;;;5036953;28;20560;-68
2022/09/30 04:42:01;;;;;;;5.67;1.40;;;19.30;99.90;;;;;;5036323;28;20252;-67
2022/09/30 04:44:31;;;;;;;7.60;1.67;;;19.10;99.90;;;;;;5035961;28;20212;-68
2022/09/30 04:46:59;;;;;;;8.43;2.17;;;19.20;99.90;;;;;;5036400;28;20532;-68
2022/09/30 04:49:27;;;;;;;8.90;2.00;;;19.10;99.90;;;;;;5035647;28;20203;-69
2022/09/30 04:51:55;;;;;;;8.03;1.63;;;19.00;99.90;;;;;;5035044;28;20180;-69
2022/09/30 04:54:23;;;;;;;7.40;1.60;;;18.90;99.90;;;;;;5030692;28;20318;-68
2022/09/30 04:56:51;;;;;;;5.40;1.77;;;18.70;99.90;;;;;;5032122;28;20182;-68
2022/09/30 04:59:18;;;;;;;6.27;1.93;;;18.70;99.90;;;;;;5033980;28;20254;-69
2022/09/30 05:01:46;;;;;;;11.63;1.60;;;18.90;99.90;;;;;;5033640;28;20188;-69
2022/09/30 05:04:15;;;;;;;12.17;2.07;;;19.10;99.90;;;;;;5035745;28;20220;-68
2022/09/30 05:06:42;;;;;;;6.73;1.97;;;19.30;99.90;;;;;;5035904;28;20265;-68
2022/09/30 05:09:09;;;;;;;13.50;1.60;;;19.50;99.90;;;;;;5036366;28;20235;-68
2022/09/30 05:11:40;;;;;;;7.80;2.17;;;19.70;99.90;;;;;;5035684;28;20187;-69
2022/09/30 05:14:10;;;;;;;9.63;1.63;;;20.10;99.90;;;;;;5034849;28;20181;-68
2022/09/30 05:16:37;;;;;;;7.50;1.60;;;20.60;99.90;;;;;;5034437;28;20190;-68
2022/09/30 05:19:06;;;;;;;7.63;2.10;;;20.60;99.90;;;;;;5035263;28;20712;-68
2022/09/30 05:21:34;;;;;;;8.53;1.90;;;20.70;99.90;;;;;;5035754;28;20189;-68
2022/09/30 05:24:02;;;;;;;10.33;1.80;;;20.40;99.90;;;;;;5035400;28;20226;-68
2022/09/30 05:26:30;;;;;;;6.60;1.63;;;20.30;99.90;;;;;;5035280;28;20634;-68
2022/09/30 05:28:57;;;;;;;10.03;1.50;;;19.90;99.90;;;;;;5035297;28;20185;-69
2022/09/30 05:31:25;;;;;;;7.40;1.20;;;19.60;99.90;;;;;;5034544;28;20189;-68
2022/09/30 05:33:54;;;;;;;7.07;1.20;;;19.60;99.90;;;;;;5034959;28;20234;-67
2022/09/30 05:36:21;;;;;;;4.03;1.07;;;19.80;99.90;;;;;;5035051;28;20214;-69
2022/09/30 05:38:52;;;;;;;2.00;0.97;;;20.20;99.90;;;;;;5035599;28;20188;-69
2022/09/30 05:41:23;;;;;;;8.23;1.43;;;20.40;99.90;;;;;;5034817;28;20181;-70
2022/09/30 05:43:50;;;;;;;4.27;1.10;;;20.30;99.90;;;;;;5034773;28;20297;-70
2022/09/30 05:46:19;;;;;;;2.77;1.00;;;20.30;99.90;;;;;;5033669;28;20627;-69
2022/09/30 05:48:47;;;;;;;3.47;0.93;;;20.60;99.90;;;;;;5034010;28;20307;-68
2022/09/30 05:51:14;;;;;;;2.53;0.80;;;20.80;99.90;;;;;;5034388;28;20196;-68
2022/09/30 05:53:42;;;;;;;4.47;0.93;;;20.50;99.90;;;;;;5034522;28;20252;-68
2022/09/30 05:56:10;;;;;;;5.33;1.43;;;20.10;99.90;;;;;;5034723;28;20264;-68
2022/09/30 05:58:40;;;;;;;10.23;1.00;;;19.70;99.90;;;;;;5034266;28;20173;-68
2022/09/30 06:01:13;;;;;;;4.87;1.00;;;19.20;99.90;;;;;;5031026;28;20644;-69
2022/09/30 06:03:45;;;;;;;5.07;1.10;;;18.90;99.90;;;;;;5014076;28;20296;-68
2022/09/30 06:06:13;;;;;;;7.10;1.40;;;18.50;99.90;;;;;;5014855;28;20190;-69
2022/09/30 06:08:42;;;;;;;7.90;1.77;;;18.40;99.90;;;;;;5014913;28;20232;-70
2022/09/30 06:11:15;;;;;;;5.83;1.20;;;18.40;99.90;;;;;;5030066;28;20185;-69
2022/09/30 06:13:44;;;;;;;4.97;1.17;;;18.40;99.90;;;;;;5034507;28;20181;-70
2022/09/30 06:16:12;;;;;;;4.70;1.13;;;18.70;99.90;;;;;;5034089;28;20176;-70
2022/09/30 06:18:41;;;;;;;7.47;1.50;;;19.00;99.90;;;;;;5034082;28;20210;-69
2022/09/30 06:21:12;;;;;;;8.37;2.23;;;19.10;99.90;;;;;;5032839;28;20223;-70
2022/09/30 06:23:40;;;;;;;5.13;0.97;;;19.20;99.90;;;;;;5023555;28;20208;-70
2022/09/30 06:26:10;;;;;;;5.23;1.60;;;19.20;99.90;;;;;;5024386;28;20166;-69
2022/09/30 06:28:38;;;;;;;4.17;1.33;;;19.30;99.90;;;;;;5019580;28;20204;-69
2022/09/30 06:31:07;;;;;;;5.20;1.20;;;19.20;99.90;;;;;;5018078;28;20270;-70
2022/09/30 06:33:35;;;;;;;7.13;1.53;;;19.10;99.90;;;;;;5014466;28;20240;-69
2022/09/30 06:36:03;;;;;;;3.70;1.20;;;19.10;99.90;;;;;;5023248;28;20190;-71
2022/09/30 06:38:33;;;;;;;2.60;1.03;;;19.20;99.90;;;;;;5033207;28;20203;-69
2022/09/30 06:41:00;;;;;;;6.57;1.30;;;19.20;99.90;;;;;;5033109;28;20189;-69
2022/09/30 06:43:28;;;;;;;4.83;1.30;;;18.80;99.90;;;;;;5033399;28;20636;-68
2022/09/30 06:45:56;;;;;;;6.30;1.13;;;18.40;99.90;;;;;;5027875;28;20194;-67
2022/09/30 06:48:23;;;;;;;4.27;0.97;;;18.20;99.90;;;;;;5022014;28;20702;-68
2022/09/30 06:50:52;;;;;;;3.80;1.20;;;17.90;99.90;;;;;;5025968;28;20216;-68
2022/09/30 06:53:20;;;;;;;7.07;2.00;;;17.80;99.90;;;;;;5022987;28;20186;-68
2022/09/30 06:55:54;;;;;;;3.90;1.10;;;17.60;99.90;;;;;;5022497;28;20185;-68
2022/09/30 06:58:23;;;;;;;4.47;1.80;;;17.60;99.90;;;;;;5040881;28;20172;-68
2022/09/30 07:01:05;;;;;;;6.67;1.30;;;17.30;99.90;;;;;;5052965;28;20225;-69
2022/09/30 07:03:34;;;;;;;11.13;2.00;;;17.30;99.90;;;;;;5051940;28;20223;-68
2022/09/30 07:06:05;;;;;;;8.47;1.87;;;17.30;99.90;;;;;;5033117;28;20271;-68
2022/09/30 07:08:35;;;;;;;5.10;1.57;;;17.30;99.90;;;;;;5033995;28;20227;-70
2022/09/30 07:11:07;;;;;;;6.37;1.70;;;17.30;99.90;;;;;;5034197;28;20226;-69
2022/09/30 07:13:34;;;;;;;4.97;1.63;;;17.30;99.90;;;;;;5034443;28;20184;-69
2022/09/30 07:16:02;;;;;;;7.73;1.97;;;17.20;99.90;;;;;;5037095;28;20176;-69
2022/09/30 07:18:29;;;;;;;5.90;1.50;;;17.10;99.90;;;;;;5037438;28;20553;-69
2022/09/30 07:20:58;;;;;;;6.03;1.50;;;17.00;99.90;;;;;;5037513;28;20224;-68
2022/09/30 07:23:25;;;;;;;13.53;2.37;;;16.90;99.90;;;;;;5019403;28;20225;-68
2022/09/30 07:26:03;;;;;;;7.47;1.43;;;16.80;99.90;;;;;;5037319;28;20631;-68
2022/09/30 07:28:38;;;;;;;5.87;1.63;;;16.80;99.90;;;;;;5035945;28;20200;-70
2022/09/30 07:31:12;;;;;;;6.57;1.70;;;16.70;99.90;;;;;;5025990;28;20206;-70
2022/09/30 07:33:39;;;;;;;4.33;1.50;;;16.70;99.90;;;;;;5033365;28;20621;-69
2022/09/30 07:36:08;;;;;;;6.07;1.70;;;16.60;99.90;;;;;;5025874;28;20209;-69
2022/09/30 07:38:39;;;;;;;4.93;1.40;;;16.60;99.90;;;;;;5026677;28;20192;-70
2022/09/30 07:41:09;;;;;;;7.57;1.60;;;16.60;99.90;;;;;;5025688;28;20243;-68
2022/09/30 07:43:39;;;;;;;5.53;1.97;;;16.50;99.90;;;;;;5020881;28;20220;-70
2022/09/30 07:46:10;;;;;;;5.30;1.80;;;16.40;99.90;;;;;;5025651;28;20192;-70
2022/09/30 07:51:08;;;;;;;5.53;1.63;;;16.10;99.90;;;;;;5031969;28;20193;-69
2022/09/30 07:53:36;;;;;;;6.37;1.47;;;16.00;99.90;;;;;;5026734;28;20712;-69
2022/09/30 07:56:05;;;;;;;10.23;1.50;;;16.00;99.90;;;;;;5026581;28;20699;-69
2022/09/30 07:58:33;;;;;;;3.83;1.17;;;16.00;99.90;;;;;;5029446;28;20614;-69
2022/09/30 08:01:01;;;;;;;8.13;1.80;;;16.00;99.90;;;;;;5023927;28;20181;-69
2022/09/30 08:03:29;;;;;;;8.97;1.50;;;15.80;99.90;;;;;;5021875;28;20244;-68
2022/09/30 08:05:56;;;;;;;4.73;1.50;;;15.70;99.90;;;;;;5025257;28;20614;-68
2022/09/30 08:08:24;;;;;;;6.00;2.00;;;15.50;99.90;;;;;;5035583;28;20189;-69
2022/09/30 08:10:51;;;;;;;5.90;2.03;;;15.50;99.90;;;;;;5035498;28;20688;-69
2022/09/30 08:13:18;;;;;;;8.13;1.90;;;15.40;99.90;;;;;;5032844;28;20263;-69
2022/09/30 08:15:46;;;;;;;8.80;1.83;;;15.40;99.90;;;;;;5035169;28;20197;-69
2022/09/30 08:18:13;;;;;;;10.37;2.17;;;15.40;99.90;;;;;;5034680;28;20244;-69
2022/09/30 08:20:41;;;;;;;8.20;2.33;;;15.40;99.90;;;;;;5034706;28;20224;-69
2022/09/30 08:23:08;;;;;;;8.83;2.20;;;15.40;99.90;;;;;;5033307;28;20205;-69
2022/09/30 08:25:35;;;;;;;9.63;1.63;;;15.40;99.90;;;;;;5035065;28;20181;-68
2022/09/30 08:28:03;;;;;;;9.40;2.40;;;15.30;99.90;;;;;;5033929;28;20182;-69
2022/09/30 08:30:30;;;;;;;10.17;2.17;;;15.30;99.90;;;;;;5034677;28;20185;-71
2022/09/30 08:32:58;;;;;;;12.87;3.10;;;15.30;99.90;;;;;;5031320;28;20181;-70
2022/09/30 08:35:25;;;;;;;8.33;2.30;;;15.30;99.90;;;;;;5035051;28;20196;-71
2022/09/30 08:37:54;;;;;;;12.37;2.23;;;15.30;99.90;;;;;;5032340;28;20303;-69
2022/09/30 08:40:25;;;;;;;8.57;2.27;;;15.30;99.90;;;;;;5026663;28;20189;-70
2022/09/30 08:43:36;;;;;;;8.33;2.53;;;15.40;99.90;;;;;;5022917;28;20659;-69
2022/09/30 08:46:10;;;;;;;12.90;2.57;;;15.40;99.90;;;;;;4973468;28;20187;-70
2022/09/30 08:48:56;;;;;;;11.20;2.40;;;15.30;99.90;;;;;;4973346;28;20556;-70
2022/09/30 08:51:38;;;;;;;12.70;2.80;;;15.10;99.90;;;;;;5013372;28;20646;-71
2022/09/30 08:54:13;;;;;;;15.50;4.00;;;15.00;99.90;;;;;;5035567;28;20192;-69
2022/09/30 08:57:00;;;;;;;13.60;3.00;;;14.90;99.90;;;;;;5035631;28;20266;-71
2022/09/30 08:59:30;;;;;;;15.23;3.53;;;14.80;99.90;;;;;;5032289;28;20219;-71
2022/09/30 09:02:15;;;;;;;14.20;2.90;;;14.70;99.90;;;;;;5037894;28;20189;-71
2022/09/30 09:04:42;;;;;;;16.07;3.50;;;14.60;99.90;;;;;;5025961;28;20209;-70
2022/09/30 09:07:10;;;;;;;24.07;4.47;;;14.50;99.90;;;;;;5035222;28;20189;-68
2022/09/30 09:09:58;;;;;;;21.37;4.30;;;14.50;99.90;;;;;;5035362;28;20189;-70
2022/09/30 09:12:52;;;;;;;18.83;3.50;;;14.60;99.90;;;;;;5033402;28;20668;-71
2022/09/30 09:15:32;;;;;;;22.10;4.00;;;14.60;99.90;;;;;;5033350;28;20197;-71
2022/09/30 09:18:21;;;;;;;31.73;4.80;;;14.50;99.90;;;;;;5033713;28;20224;-70
2022/09/30 09:20:59;;;;;;;25.80;4.10;;;14.40;99.90;;;;;;5032984;28;20244;-71
2022/09/30 09:23:30;;;;;;;24.37;5.10;;;14.40;99.90;;;;;;5032609;28;20704;-71
2022/09/30 09:25:57;;;;;;;25.40;4.50;;;14.40;99.90;;;;;;5033414;28;20599;-70
2022/09/30 09:29:01;;;;;;;21.97;4.43;;;14.40;99.90;;;;;;5033416;28;20250;-70
2022/09/30 09:31:28;;;;;;;24.70;4.63;;;14.30;99.90;;;;;;5032781;28;20188;-72
2022/09/30 09:34:08;;;;;;;24.50;4.37;;;14.40;99.90;;;;;;5031661;28;20185;-70
2022/09/30 09:38:23;;;;;;;22.87;4.13;;;14.40;99.90;;;;;;5033037;28;20334;-70
2022/09/30 09:40:34;;;;;;;17.77;3.77;;;14.40;99.90;;;;;;5006727;28;20255;-71
2022/09/30 09:43:32;;;;;;;25.87;5.27;;;14.40;99.90;;;;;;5020150;28;20255;-70
2022/09/30 09:46:25;;;;;;;21.47;5.00;;;14.40;99.90;;;;;;5029655;28;20185;-70
2022/09/30 09:49:19;;;;;;;26.50;5.13;;;14.40;99.90;;;;;;5019631;28;20200;-70
2022/09/30 09:52:13;;;;;;;23.43;5.23;;;14.50;99.90;;;;;;5032840;28;20188;-70
2022/09/30 09:54:50;;;;;;;26.07;5.20;;;14.50;99.90;;;;;;5032695;28;20277;-70
2022/09/30 09:57:23;;;;;;;25.50;4.70;;;14.40;99.90;;;;;;5032670;28;20523;-70
2022/09/30 10:03:23;;;;;;;16.23;3.83;;;14.50;99.90;;;;;;5110050;28;20205;-70
2022/09/30 10:06:08;;;;;;;23.73;4.47;;;14.50;99.90;;;;;;5090128;28;20202;-70
2022/09/30 10:08:38;;;;;;;22.20;4.30;;;14.50;99.90;;;;;;5089703;28;20216;-70
2022/09/30 10:11:17;;;;;;;27.17;4.87;;;14.40;99.90;;;;;;5089289;28;20548;-72
2022/09/30 10:13:46;;;;;;;27.93;5.40;;;14.40;99.90;;;;;;5089472;28;20178;-71
2022/09/30 10:16:36;;;;;;;28.43;5.40;;;14.40;99.90;;;;;;5095490;28;20531;-71
2022/09/30 10:19:25;;;;;;;24.70;4.87;;;14.40;99.90;;;;;;5109511;28;20582;-70
2022/09/30 10:22:13;;;;;;;32.13;5.77;;;14.40;99.90;;;;;;5109227;28;20678;-71
2022/09/30 10:24:41;;;;;;;23.27;4.37;;;14.30;99.90;;;;;;5079826;28;20240;-70
2022/09/30 10:27:46;;;;;;;28.97;5.63;;;14.30;99.90;;;;;;5104323;28;20236;-70
2022/09/30 10:30:55;;;;;;;30.03;4.80;;;14.30;99.90;;;;;;5081071;28;20243;-70
2022/09/30 10:33:23;;;;;;;26.67;4.53;;;14.20;99.90;;;;;;5068587;28;20197;-70
2022/09/30 10:36:03;;;;;;;24.13;4.83;;;14.20;99.90;;;;;;5109156;28;20190;-70
2022/09/30 10:38:33;;;;;;;27.40;4.53;;;14.10;99.90;;;;;;5088920;28;20691;-70
2022/09/30 10:41:03;;;;;;;25.07;3.97;;;14.20;99.90;;;;;;5093105;28;20661;-69
2022/09/30 10:43:51;;;;;;;28.70;4.70;;;14.20;99.90;;;;;;5107261;28;20516;-69
2022/09/30 10:46:24;;;;;;;22.60;4.87;;;14.20;99.90;;;;;;5106308;28;20201;-70
2022/09/30 10:48:54;;;;;;;20.93;4.63;;;14.20;99.90;;;;;;5088836;28;20183;-70
2022/09/30 10:51:29;;;;;;;25.40;4.40;;;14.20;99.90;;;;;;5088411;28;20180;-70
2022/09/30 10:53:57;;;;;;;24.40;4.17;;;14.20;99.90;;;;;;5070781;28;20273;-70
2022/09/30 10:56:45;;;;;;;26.30;5.00;;;14.20;99.90;;;;;;5096050;28;20190;-70
2022/09/30 10:59:29;;;;;;;32.40;5.33;;;14.20;99.90;;;;;;5088953;28;20230;-71
2022/09/30 11:02:13;;;;;;;21.23;4.87;;;14.20;99.90;;;;;;5088535;28;20175;-69
2022/09/30 11:05:01;;;;;;;22.43;4.67;;;14.20;99.90;;;;;;5088510;28;20591;-70
2022/09/30 11:07:41;;;;;;;21.07;4.60;;;14.20;99.90;;;;;;5099795;28;20179;-70
2022/09/30 11:10:24;;;;;;;27.90;4.80;;;14.10;99.90;;;;;;5101604;28;20181;-70
2022/09/30 11:13:30;;;;;;;22.30;4.73;;;14.20;99.90;;;;;;5096114;28;20183;-69
2022/09/30 11:16:21;;;;;;;19.93;4.20;;;14.20;99.90;;;;;;5003175;28;20192;-70
2022/09/30 11:19:08;;;;;;;14.83;4.23;;;14.20;99.90;;;;;;5083126;28;20230;-70
2022/09/30 11:22:11;;;;;;;24.20;4.43;;;14.20;99.90;;;;;;5110901;28;20170;-70
2022/09/30 11:24:43;;;;;;;20.33;3.67;;;14.20;99.90;;;;;;5088739;28;20300;-70
2022/09/30 11:27:49;;;;;;;21.83;4.33;;;14.20;99.90;;;;;;5103469;28;20607;-70
2022/09/30 11:30:32;;;;;;;17.53;4.20;;;14.20;99.90;;;;;;5031233;28;20195;-70
2022/09/30 11:33:13;;;;;;;17.90;3.83;;;14.20;99.90;;;;;;5075198;28;20548;-68
2022/09/30 11:36:08;;;;;;;22.63;4.63;;;14.20;99.90;;;;;;5082618;28;20225;-70
2022/09/30 11:39:00;;;;;;;22.37;4.47;;;14.20;99.90;;;;;;5091464;28;20229;-68
2022/09/30 11:41:45;;;;;;;16.30;3.93;;;14.20;99.90;;;;;;5076814;28;20218;-69
2022/09/30 11:44:37;;;;;;;23.80;4.83;;;14.20;99.90;;;;;;5071503;28;20193;-69
2022/09/30 11:47:08;;;;;;;23.77;4.03;;;14.20;99.90;;;;;;5096435;28;20670;-69
2022/09/30 11:49:47;;;;;;;18.23;4.00;;;14.20;99.90;;;;;;5094574;28;20187;-70
2022/09/30 11:52:35;;;;;;;25.50;4.57;;;14.20;99.90;;;;;;5078360;28;20175;-71
2022/09/30 11:55:27;;;;;;;26.73;5.10;;;14.20;99.90;;;;;;5096358;28;20180;-70
2022/09/30 11:58:07;;;;;;;18.53;4.07;;;14.20;99.90;;;;;;5075961;28;20669;-69
2022/09/30 12:00:39;;;;;;;23.77;4.50;;;14.20;99.90;;;;;;5087422;28;20270;-70
2022/09/30 12:03:40;;;;;;;18.80;4.10;;;14.20;99.90;;;;;;5096432;28;20171;-70
2022/09/30 12:06:28;;;;;;;19.30;4.53;;;14.10;99.90;;;;;;5007401;28;20269;-70
2022/09/30 12:09:11;;;;;;;23.63;4.97;;;14.20;99.90;;;;;;5096776;28;20175;-69
2022/09/30 12:11:44;;;;;;;17.73;4.30;;;14.20;99.90;;;;;;5076281;28;20195;-70
2022/09/30 12:14:47;;;;;;;17.90;4.60;;;14.20;99.90;;;;;;5076982;28;20590;-70
2022/09/30 12:17:40;;;;;;;24.43;4.30;;;14.20;99.90;;;;;;5045233;28;20244;-70
2022/09/30 12:20:24;;;;;;;22.07;5.43;;;14.20;99.90;;;;;;5080624;28;20187;-70
2022/09/30 12:22:57;;;;;;;19.70;4.20;;;14.10;99.90;;;;;;5094841;28;20182;-70
2022/09/30 12:25:58;;;;;;;19.00;4.77;;;14.10;99.90;;;;;;5096406;28;20533;-70
2022/09/30 12:31:45;;;;;;;13.10;3.40;;;14.00;99.90;;;;;;5080006;28;20202;-71
2022/09/30 12:34:41;;;;;;;14.33;4.00;;;14.00;99.90;;;;;;5076030;28;20630;-70
2022/09/30 12:37:37;;;;;;;30.10;5.43;;;13.90;99.90;;;;;;5057957;28;20188;-70
2022/09/30 12:40:21;;;;;;;16.20;4.53;;;13.90;99.90;;;;;;5062637;28;20203;-69
2022/09/30 12:43:05;;;;;;;20.17;4.20;;;13.80;99.90;;;;;;5075561;28;20192;-70
2022/09/30 12:45:57;;;;;;;28.80;4.87;;;13.80;99.90;;;;;;5075498;28;20668;-70
2022/09/30 12:48:33;;;;;;;21.43;5.00;;;13.70;99.90;;;;;;5075112;28;20179;-70
2022/09/30 12:51:01;;;;;;;19.03;4.57;;;13.60;99.90;;;;;;5086036;28;20179;-69
2022/09/30 12:53:38;;;;;;;21.13;5.03;;;13.50;99.90;;;;;;5079840;28;20179;-70
2022/09/30 12:56:12;;;;;;;18.20;4.33;;;13.40;99.90;;;;;;5074738;28;20248;-70
2022/09/30 12:58:59;;;;;;;21.10;5.07;;;13.30;99.90;;;;;;5074418;28;20313;-70
2022/09/30 13:01:38;;;;;;;18.73;4.50;;;13.30;99.90;;;;;;5072123;28;20536;-69
2022/09/30 13:04:05;;;;;;;24.60;4.93;;;13.20;99.90;;;;;;5057370;28;20640;-69
2022/09/30 13:06:45;;;;;;;19.00;4.47;;;13.30;99.90;;;;;;5076608;28;20171;-69
2022/09/30 13:09:29;;;;;;;23.27;5.20;;;13.30;99.90;;;;;;5094604;28;20266;-69
2022/09/30 13:12:00;;;;;;;20.27;5.73;;;13.30;99.90;;;;;;5074342;28;20172;-70
2022/09/30 13:14:42;;;;;;;23.63;5.93;;;13.30;99.90;;;;;;5092204;28;20182;-68
2022/09/30 13:17:10;;;;;;;17.07;4.83;;;13.40;99.90;;;;;;5094665;28;20175;-69
2022/09/30 13:19:43;;;;;;;22.97;5.27;;;13.40;99.90;;;;;;5068737;28;20208;-68
2022/09/30 13:22:21;;;;;;;22.07;5.47;;;13.30;99.90;;;;;;5074683;28;20188;-69
2022/09/30 13:25:04;;;;;;;26.70;5.00;;;13.40;99.90;;;;;;5074651;28;20524;-69
2022/09/30 13:27:36;;;;;;;27.90;6.27;;;13.40;99.90;;;;;;5073479;28;20679;-69
2022/09/30 13:30:24;;;;;;;10.70;4.00;;;;;;;;;;5081993;28;20264;-69
2022/09/30 13:32:58;;;;;;;23.53;4.50;;;13.40;99.90;;;;;;5078302;28;20192;-70
2022/09/30 13:35:32;;;;;;;18.40;3.67;;;13.40;99.90;;;;;;5094987;28;20664;-69
2022/09/30 13:38:14;;;;;;;28.23;4.53;;;13.40;99.90;;;;;;5094261;28;20198;-69